sensor_id;sensor_type;location;lat;lon;timestamp;P1;durP1;ratioP1;P2;durP2;ratioP2
2930;SDS011;1475;51.454;7.150;2022-07-25T00:01:39;7.35;;;6.65;;
2930;SDS011;1475;51.454;7.150;2022-07-25T00:04:06;7.40;;;6.55;;
2930;SDS011;1475;51.454;7.150;2022-07-25T00:06:33;7.50;;;6.28;;
2930;SDS011;1475;51.454;7.150;2022-07-25T00:09:00;7.50;;;5.95;;
2930;SDS011;1475;51.454;7.150;2022-07-25T00:11:29;7.32;;;6.63;;
2930;SDS011;1475;51.454;7.150;2022-07-25T00:13:55;7.30;;;6.03;;
2930;SDS011;1475;51.454;7.150;2022-07-25T00:16:22;7.30;;;6.60;;
2930;SDS011;1475;51.454;7.150;2022-07-25T00:18:50;7.32;;;5.93;;
2930;SDS011;1475;51.454;7.150;2022-07-25T00:21:16;7.40;;;6.70;;
2930;SDS011;1475;51.454;7.150;2022-07-25T00:23:43;7.43;;;6.70;;
2930;SDS011;1475;51.454;7.150;2022-07-25T00:26:10;7.10;;;6.40;;
2930;SDS011;1475;51.454;7.150;2022-07-25T00:28:39;8.02;;;7.22;;
2930;SDS011;1475;51.454;7.150;2022-07-25T00:31:06;10.60;;;6.72;;
2930;SDS011;1475;51.454;7.150;2022-07-25T00:33:33;7.13;;;6.40;;
2930;SDS011;1475;51.454;7.150;2022-07-25T00:36:00;9.05;;;6.82;;
2930;SDS011;1475;51.454;7.150;2022-07-25T00:38:27;9.02;;;7.00;;
2930;SDS011;1475;51.454;7.150;2022-07-25T00:40:54;7.22;;;6.00;;
2930;SDS011;1475;51.454;7.150;2022-07-25T00:43:21;7.40;;;6.57;;
2930;SDS011;1475;51.454;7.150;2022-07-25T00:45:51;7.70;;;6.93;;
2930;SDS011;1475;51.454;7.150;2022-07-25T00:48:18;8.43;;;6.22;;
2930;SDS011;1475;51.454;7.150;2022-07-25T00:50:45;7.20;;;6.60;;
2930;SDS011;1475;51.454;7.150;2022-07-25T00:53:12;7.40;;;6.60;;
2930;SDS011;1475;51.454;7.150;2022-07-25T00:55:39;8.02;;;7.22;;
2930;SDS011;1475;51.454;7.150;2022-07-25T00:58:06;7.10;;;6.40;;
2930;SDS011;1475;51.454;7.150;2022-07-25T01:00:33;7.67;;;6.47;;
2930;SDS011;1475;51.454;7.150;2022-07-25T01:03:02;10.20;;;6.65;;
2930;SDS011;1475;51.454;7.150;2022-07-25T01:05:29;8.48;;;7.35;;
2930;SDS011;1475;51.454;7.150;2022-07-25T01:07:55;7.95;;;7.15;;
2930;SDS011;1475;51.454;7.150;2022-07-25T01:10:23;7.20;;;6.30;;
2930;SDS011;1475;51.454;7.150;2022-07-25T01:12:50;8.10;;;7.00;;
2930;SDS011;1475;51.454;7.150;2022-07-25T01:15:19;6.78;;;6.18;;
2930;SDS011;1475;51.454;7.150;2022-07-25T01:17:47;8.23;;;6.68;;
2930;SDS011;1475;51.454;7.150;2022-07-25T01:20:16;6.63;;;5.93;;
2930;SDS011;1475;51.454;7.150;2022-07-25T01:22:43;8.43;;;6.28;;
2930;SDS011;1475;51.454;7.150;2022-07-25T01:25:11;6.95;;;6.15;;
2930;SDS011;1475;51.454;7.150;2022-07-25T01:27:39;7.35;;;6.55;;
2930;SDS011;1475;51.454;7.150;2022-07-25T01:30:08;7.80;;;6.60;;
2930;SDS011;1475;51.454;7.150;2022-07-25T01:32:37;7.43;;;6.10;;
2930;SDS011;1475;51.454;7.150;2022-07-25T01:35:04;6.90;;;6.20;;
2930;SDS011;1475;51.454;7.150;2022-07-25T01:37:33;7.80;;;6.85;;
2930;SDS011;1475;51.454;7.150;2022-07-25T01:40:01;8.75;;;7.63;;
2930;SDS011;1475;51.454;7.150;2022-07-25T01:42:28;7.70;;;6.90;;
2930;SDS011;1475;51.454;7.150;2022-07-25T01:44:55;7.30;;;6.60;;
2930;SDS011;1475;51.454;7.150;2022-07-25T01:47:22;7.13;;;6.43;;
2930;SDS011;1475;51.454;7.150;2022-07-25T01:49:49;6.65;;;6.05;;
2930;SDS011;1475;51.454;7.150;2022-07-25T01:52:16;7.80;;;6.80;;
2930;SDS011;1475;51.454;7.150;2022-07-25T01:54:44;6.57;;;5.97;;
2930;SDS011;1475;51.454;7.150;2022-07-25T01:57:11;7.65;;;6.78;;
2930;SDS011;1475;51.454;7.150;2022-07-25T01:59:38;7.82;;;7.00;;
2930;SDS011;1475;51.454;7.150;2022-07-25T02:02:06;7.82;;;6.60;;
2930;SDS011;1475;51.454;7.150;2022-07-25T02:04:34;7.65;;;6.85;;
2930;SDS011;1475;51.454;7.150;2022-07-25T02:07:01;7.70;;;6.90;;
2930;SDS011;1475;51.454;7.150;2022-07-25T02:09:29;6.40;;;5.80;;
2930;SDS011;1475;51.454;7.150;2022-07-25T02:11:57;8.73;;;6.80;;
2930;SDS011;1475;51.454;7.150;2022-07-25T02:14:24;7.22;;;6.40;;
2930;SDS011;1475;51.454;7.150;2022-07-25T02:16:51;9.63;;;6.60;;
2930;SDS011;1475;51.454;7.150;2022-07-25T02:19:18;8.13;;;6.70;;
2930;SDS011;1475;51.454;7.150;2022-07-25T02:21:45;8.73;;;7.07;;
2930;SDS011;1475;51.454;7.150;2022-07-25T02:24:12;8.00;;;7.07;;
2930;SDS011;1475;51.454;7.150;2022-07-25T02:26:38;8.70;;;7.80;;
2930;SDS011;1475;51.454;7.150;2022-07-25T02:29:07;7.28;;;6.40;;
2930;SDS011;1475;51.454;7.150;2022-07-25T02:31:34;7.00;;;6.30;;
2930;SDS011;1475;51.454;7.150;2022-07-25T02:34:01;7.78;;;6.97;;
2930;SDS011;1475;51.454;7.150;2022-07-25T02:36:28;7.70;;;6.90;;
2930;SDS011;1475;51.454;7.150;2022-07-25T02:38:55;7.20;;;6.50;;
2930;SDS011;1475;51.454;7.150;2022-07-25T02:41:22;6.75;;;6.13;;
2930;SDS011;1475;51.454;7.150;2022-07-25T02:43:49;8.30;;;6.35;;
2930;SDS011;1475;51.454;7.150;2022-07-25T02:46:21;7.68;;;6.55;;
2930;SDS011;1475;51.454;7.150;2022-07-25T02:48:49;7.15;;;6.45;;
2930;SDS011;1475;51.454;7.150;2022-07-25T02:51:18;8.35;;;6.95;;
2930;SDS011;1475;51.454;7.150;2022-07-25T02:53:45;7.05;;;6.35;;
2930;SDS011;1475;51.454;7.150;2022-07-25T02:56:11;7.70;;;7.00;;
2930;SDS011;1475;51.454;7.150;2022-07-25T02:58:39;8.13;;;6.60;;
2930;SDS011;1475;51.454;7.150;2022-07-25T03:01:06;7.85;;;7.05;;
2930;SDS011;1475;51.454;7.150;2022-07-25T03:03:36;7.00;;;6.30;;
2930;SDS011;1475;51.454;7.150;2022-07-25T03:06:03;7.50;;;6.80;;
2930;SDS011;1475;51.454;7.150;2022-07-25T03:08:30;8.27;;;6.18;;
2930;SDS011;1475;51.454;7.150;2022-07-25T03:10:57;8.30;;;7.30;;
2930;SDS011;1475;51.454;7.150;2022-07-25T03:13:24;8.20;;;7.30;;
2930;SDS011;1475;51.454;7.150;2022-07-25T03:15:51;6.82;;;6.13;;
2930;SDS011;1475;51.454;7.150;2022-07-25T03:18:17;7.95;;;7.15;;
2930;SDS011;1475;51.454;7.150;2022-07-25T03:20:46;8.60;;;6.40;;
2930;SDS011;1475;51.454;7.150;2022-07-25T03:23:12;7.60;;;6.53;;
2930;SDS011;1475;51.454;7.150;2022-07-25T03:25:39;7.28;;;6.32;;
2930;SDS011;1475;51.454;7.150;2022-07-25T03:28:06;7.80;;;7.00;;
2930;SDS011;1475;51.454;7.150;2022-07-25T03:30:33;6.72;;;6.13;;
2930;SDS011;1475;51.454;7.150;2022-07-25T03:33:00;7.97;;;6.97;;
2930;SDS011;1475;51.454;7.150;2022-07-25T03:35:27;7.15;;;6.45;;
2930;SDS011;1475;51.454;7.150;2022-07-25T03:37:55;7.10;;;6.40;;
2930;SDS011;1475;51.454;7.150;2022-07-25T03:40:22;8.40;;;6.60;;
2930;SDS011;1475;51.454;7.150;2022-07-25T03:42:49;8.68;;;7.20;;
2930;SDS011;1475;51.454;7.150;2022-07-25T03:45:15;7.22;;;6.53;;
2930;SDS011;1475;51.454;7.150;2022-07-25T03:47:42;7.43;;;6.20;;
2930;SDS011;1475;51.454;7.150;2022-07-25T03:50:09;8.48;;;6.60;;
2930;SDS011;1475;51.454;7.150;2022-07-25T03:52:36;7.30;;;6.60;;
2930;SDS011;1475;51.454;7.150;2022-07-25T03:55:05;7.22;;;6.30;;
2930;SDS011;1475;51.454;7.150;2022-07-25T03:57:33;10.02;;;6.72;;
2930;SDS011;1475;51.454;7.150;2022-07-25T04:00:00;7.03;;;6.32;;
2930;SDS011;1475;51.454;7.150;2022-07-25T04:02:27;6.82;;;6.13;;
2930;SDS011;1475;51.454;7.150;2022-07-25T04:04:54;7.20;;;5.90;;
2930;SDS011;1475;51.454;7.150;2022-07-25T04:07:21;7.20;;;6.40;;
2930;SDS011;1475;51.454;7.150;2022-07-25T04:09:48;7.57;;;6.10;;
2930;SDS011;1475;51.454;7.150;2022-07-25T04:12:16;7.30;;;6.15;;
2930;SDS011;1475;51.454;7.150;2022-07-25T04:14:43;8.70;;;6.90;;
2930;SDS011;1475;51.454;7.150;2022-07-25T04:17:10;8.40;;;7.10;;
2930;SDS011;1475;51.454;7.150;2022-07-25T04:19:37;7.53;;;6.13;;
2930;SDS011;1475;51.454;7.150;2022-07-25T04:22:05;8.13;;;6.30;;
2930;SDS011;1475;51.454;7.150;2022-07-25T04:24:31;6.82;;;6.13;;
2930;SDS011;1475;51.454;7.150;2022-07-25T04:26:58;7.10;;;6.40;;
2930;SDS011;1475;51.454;7.150;2022-07-25T04:29:27;7.30;;;6.60;;
2930;SDS011;1475;51.454;7.150;2022-07-25T04:31:54;6.68;;;5.97;;
2930;SDS011;1475;51.454;7.150;2022-07-25T04:34:22;6.93;;;5.87;;
2930;SDS011;1475;51.454;7.150;2022-07-25T04:36:48;9.32;;;6.38;;
2930;SDS011;1475;51.454;7.150;2022-07-25T04:39:15;7.65;;;6.38;;
2930;SDS011;1475;51.454;7.150;2022-07-25T04:41:42;7.40;;;6.32;;
2930;SDS011;1475;51.454;7.150;2022-07-25T04:44:09;7.63;;;6.22;;
2930;SDS011;1475;51.454;7.150;2022-07-25T04:46:37;8.68;;;6.60;;
2930;SDS011;1475;51.454;7.150;2022-07-25T04:49:05;7.68;;;6.32;;
2930;SDS011;1475;51.454;7.150;2022-07-25T04:51:32;6.67;;;5.97;;
2930;SDS011;1475;51.454;7.150;2022-07-25T04:53:58;7.40;;;6.15;;
2930;SDS011;1475;51.454;7.150;2022-07-25T04:56:25;6.80;;;6.20;;
2930;SDS011;1475;51.454;7.150;2022-07-25T04:58:52;8.63;;;6.45;;
2930;SDS011;1475;51.454;7.150;2022-07-25T05:01:19;7.20;;;6.00;;
2930;SDS011;1475;51.454;7.150;2022-07-25T05:03:48;9.90;;;6.82;;
2930;SDS011;1475;51.454;7.150;2022-07-25T05:06:15;6.90;;;6.20;;
2930;SDS011;1475;51.454;7.150;2022-07-25T05:08:42;7.80;;;5.97;;
2930;SDS011;1475;51.454;7.150;2022-07-25T05:11:09;8.93;;;6.10;;
2930;SDS011;1475;51.454;7.150;2022-07-25T05:13:36;6.93;;;6.22;;
2930;SDS011;1475;51.454;7.150;2022-07-25T05:16:03;6.75;;;6.05;;
2930;SDS011;1475;51.454;7.150;2022-07-25T05:18:32;10.10;;;6.10;;
2930;SDS011;1475;51.454;7.150;2022-07-25T05:21:00;6.93;;;6.00;;
2930;SDS011;1475;51.454;7.150;2022-07-25T05:23:27;7.75;;;5.80;;
2930;SDS011;1475;51.454;7.150;2022-07-25T05:25:54;7.22;;;6.20;;
2930;SDS011;1475;51.454;7.150;2022-07-25T05:28:31;6.97;;;6.28;;
2930;SDS011;1475;51.454;7.150;2022-07-25T05:30:59;7.82;;;6.60;;
2930;SDS011;1475;51.454;7.150;2022-07-25T05:33:26;9.20;;;6.60;;
2930;SDS011;1475;51.454;7.150;2022-07-25T05:35:53;7.93;;;6.20;;
2930;SDS011;1475;51.454;7.150;2022-07-25T05:38:21;7.00;;;6.30;;
2930;SDS011;1475;51.454;7.150;2022-07-25T05:40:48;7.55;;;6.55;;
2930;SDS011;1475;51.454;7.150;2022-07-25T05:43:16;6.65;;;6.03;;
2930;SDS011;1475;51.454;7.150;2022-07-25T05:45:43;7.75;;;6.70;;
2930;SDS011;1475;51.454;7.150;2022-07-25T05:48:12;6.90;;;6.20;;
2930;SDS011;1475;51.454;7.150;2022-07-25T05:50:39;8.10;;;5.90;;
2930;SDS011;1475;51.454;7.150;2022-07-25T05:53:06;6.65;;;5.78;;
2930;SDS011;1475;51.454;7.150;2022-07-25T05:55:36;7.40;;;6.60;;
2930;SDS011;1475;51.454;7.150;2022-07-25T05:58:03;10.05;;;7.10;;
2930;SDS011;1475;51.454;7.150;2022-07-25T06:00:33;7.85;;;6.00;;
2930;SDS011;1475;51.454;7.150;2022-07-25T06:03:00;6.57;;;5.88;;
2930;SDS011;1475;51.454;7.150;2022-07-25T06:05:27;7.55;;;6.55;;
2930;SDS011;1475;51.454;7.150;2022-07-25T06:07:54;7.90;;;6.82;;
2930;SDS011;1475;51.454;7.150;2022-07-25T06:10:25;6.57;;;5.88;;
2930;SDS011;1475;51.454;7.150;2022-07-25T06:12:53;7.20;;;6.00;;
2930;SDS011;1475;51.454;7.150;2022-07-25T06:15:20;7.63;;;6.40;;
2930;SDS011;1475;51.454;7.150;2022-07-25T06:17:50;6.77;;;6.07;;
2930;SDS011;1475;51.454;7.150;2022-07-25T06:20:17;7.07;;;6.10;;
2930;SDS011;1475;51.454;7.150;2022-07-25T06:22:44;6.50;;;5.80;;
2930;SDS011;1475;51.454;7.150;2022-07-25T06:25:12;6.93;;;6.18;;
2930;SDS011;1475;51.454;7.150;2022-07-25T06:27:40;8.07;;;6.28;;
2930;SDS011;1475;51.454;7.150;2022-07-25T06:30:09;6.80;;;6.10;;
2930;SDS011;1475;51.454;7.150;2022-07-25T06:32:37;6.60;;;5.90;;
2930;SDS011;1475;51.454;7.150;2022-07-25T06:35:05;5.78;;;5.18;;
2930;SDS011;1475;51.454;7.150;2022-07-25T06:37:35;8.98;;;5.90;;
2930;SDS011;1475;51.454;7.150;2022-07-25T06:40:04;7.45;;;6.63;;
2930;SDS011;1475;51.454;7.150;2022-07-25T06:42:32;6.85;;;6.15;;
2930;SDS011;1475;51.454;7.150;2022-07-25T06:45:02;7.38;;;6.30;;
2930;SDS011;1475;51.454;7.150;2022-07-25T06:47:33;7.32;;;6.63;;
2930;SDS011;1475;51.454;7.150;2022-07-25T06:50:00;7.53;;;6.80;;
2930;SDS011;1475;51.454;7.150;2022-07-25T06:52:27;7.10;;;6.38;;
2930;SDS011;1475;51.454;7.150;2022-07-25T06:54:54;6.90;;;5.80;;
2930;SDS011;1475;51.454;7.150;2022-07-25T06:57:21;7.45;;;6.20;;
2930;SDS011;1475;51.454;7.150;2022-07-25T06:59:49;6.70;;;6.00;;
2930;SDS011;1475;51.454;7.150;2022-07-25T07:02:16;7.20;;;6.30;;
2930;SDS011;1475;51.454;7.150;2022-07-25T07:04:45;6.82;;;6.10;;
2930;SDS011;1475;51.454;7.150;2022-07-25T07:07:12;6.45;;;5.85;;
2930;SDS011;1475;51.454;7.150;2022-07-25T07:09:40;8.82;;;6.45;;
2930;SDS011;1475;51.454;7.150;2022-07-25T07:12:10;7.00;;;6.40;;
2930;SDS011;1475;51.454;7.150;2022-07-25T07:14:37;9.20;;;6.90;;
2930;SDS011;1475;51.454;7.150;2022-07-25T07:17:05;7.30;;;6.60;;
2930;SDS011;1475;51.454;7.150;2022-07-25T07:19:38;6.88;;;6.07;;
2930;SDS011;1475;51.454;7.150;2022-07-25T07:22:09;6.68;;;6.07;;
2930;SDS011;1475;51.454;7.150;2022-07-25T07:24:37;7.15;;;6.45;;
2930;SDS011;1475;51.454;7.150;2022-07-25T07:27:04;6.68;;;6.07;;
2930;SDS011;1475;51.454;7.150;2022-07-25T07:29:31;6.93;;;6.22;;
2930;SDS011;1475;51.454;7.150;2022-07-25T07:31:58;7.00;;;6.23;;
2930;SDS011;1475;51.454;7.150;2022-07-25T07:34:26;7.00;;;6.20;;
2930;SDS011;1475;51.454;7.150;2022-07-25T07:36:53;7.43;;;6.72;;
2930;SDS011;1475;51.454;7.150;2022-07-25T07:39:23;8.60;;;6.82;;
2930;SDS011;1475;51.454;7.150;2022-07-25T07:41:50;7.00;;;6.30;;
2930;SDS011;1475;51.454;7.150;2022-07-25T07:44:18;7.05;;;6.00;;
2930;SDS011;1475;51.454;7.150;2022-07-25T07:46:45;6.80;;;5.95;;
2930;SDS011;1475;51.454;7.150;2022-07-25T07:49:16;7.43;;;6.63;;
2930;SDS011;1475;51.454;7.150;2022-07-25T07:51:47;8.20;;;6.88;;
2930;SDS011;1475;51.454;7.150;2022-07-25T07:54:16;7.73;;;6.30;;
2930;SDS011;1475;51.454;7.150;2022-07-25T07:57:01;7.57;;;6.00;;
2930;SDS011;1475;51.454;7.150;2022-07-25T07:59:30;7.03;;;6.20;;
2930;SDS011;1475;51.454;7.150;2022-07-25T08:01:57;7.85;;;6.68;;
2930;SDS011;1475;51.454;7.150;2022-07-25T08:04:24;6.60;;;5.90;;
2930;SDS011;1475;51.454;7.150;2022-07-25T08:06:51;7.40;;;6.70;;
2930;SDS011;1475;51.454;7.150;2022-07-25T08:09:18;6.30;;;5.60;;
2930;SDS011;1475;51.454;7.150;2022-07-25T08:11:45;6.87;;;6.17;;
2930;SDS011;1475;51.454;7.150;2022-07-25T08:14:15;8.50;;;6.87;;
2930;SDS011;1475;51.454;7.150;2022-07-25T08:16:44;8.50;;;7.07;;
2930;SDS011;1475;51.454;7.150;2022-07-25T08:19:11;10.52;;;6.40;;
2930;SDS011;1475;51.454;7.150;2022-07-25T08:21:39;7.32;;;6.63;;
2930;SDS011;1475;51.454;7.150;2022-07-25T08:24:06;7.60;;;6.80;;
2930;SDS011;1475;51.454;7.150;2022-07-25T08:26:34;8.13;;;6.53;;
2930;SDS011;1475;51.454;7.150;2022-07-25T08:29:01;7.37;;;6.67;;
2930;SDS011;1475;51.454;7.150;2022-07-25T08:31:30;7.32;;;6.43;;
2930;SDS011;1475;51.454;7.150;2022-07-25T08:33:57;7.65;;;6.70;;
2930;SDS011;1475;51.454;7.150;2022-07-25T08:36:24;7.55;;;6.25;;
2930;SDS011;1475;51.454;7.150;2022-07-25T08:38:51;7.03;;;6.07;;
2930;SDS011;1475;51.454;7.150;2022-07-25T08:41:18;7.70;;;6.90;;
2930;SDS011;1475;51.454;7.150;2022-07-25T08:43:46;7.60;;;6.80;;
2930;SDS011;1475;51.454;7.150;2022-07-25T08:46:15;8.73;;;7.00;;
2930;SDS011;1475;51.454;7.150;2022-07-25T08:48:44;7.45;;;6.35;;
2930;SDS011;1475;51.454;7.150;2022-07-25T08:51:11;7.75;;;6.22;;
2930;SDS011;1475;51.454;7.150;2022-07-25T08:53:39;9.52;;;7.07;;
2930;SDS011;1475;51.454;7.150;2022-07-25T08:56:09;8.00;;;7.10;;
2930;SDS011;1475;51.454;7.150;2022-07-25T08:58:36;8.00;;;7.20;;
2930;SDS011;1475;51.454;7.150;2022-07-25T09:01:03;9.10;;;7.10;;
2930;SDS011;1475;51.454;7.150;2022-07-25T09:03:29;7.00;;;6.30;;
2930;SDS011;1475;51.454;7.150;2022-07-25T09:05:58;7.90;;;6.88;;
2930;SDS011;1475;51.454;7.150;2022-07-25T09:08:25;9.35;;;7.43;;
2930;SDS011;1475;51.454;7.150;2022-07-25T09:10:52;9.23;;;6.90;;
2930;SDS011;1475;51.454;7.150;2022-07-25T09:13:19;10.40;;;6.78;;
2930;SDS011;1475;51.454;7.150;2022-07-25T09:15:48;7.05;;;6.35;;
2930;SDS011;1475;51.454;7.150;2022-07-25T09:18:16;7.13;;;6.43;;
2930;SDS011;1475;51.454;7.150;2022-07-25T09:20:48;7.13;;;6.22;;
2930;SDS011;1475;51.454;7.150;2022-07-25T09:23:27;8.80;;;6.72;;
2930;SDS011;1475;51.454;7.150;2022-07-25T09:26:03;8.40;;;6.82;;
2930;SDS011;1475;51.454;7.150;2022-07-25T09:28:31;7.35;;;6.53;;
2930;SDS011;1475;51.454;7.150;2022-07-25T09:31:05;7.25;;;6.38;;
2930;SDS011;1475;51.454;7.150;2022-07-25T09:33:33;7.55;;;6.50;;
2930;SDS011;1475;51.454;7.150;2022-07-25T09:36:09;7.03;;;6.25;;
2930;SDS011;1475;51.454;7.150;2022-07-25T09:38:38;7.03;;;6.32;;
2930;SDS011;1475;51.454;7.150;2022-07-25T09:41:05;7.55;;;6.75;;
2930;SDS011;1475;51.454;7.150;2022-07-25T09:43:36;7.30;;;6.60;;
2930;SDS011;1475;51.454;7.150;2022-07-25T09:46:04;9.02;;;6.40;;
2930;SDS011;1475;51.454;7.150;2022-07-25T09:48:31;7.68;;;6.28;;
2930;SDS011;1475;51.454;7.150;2022-07-25T09:50:58;8.25;;;6.65;;
2930;SDS011;1475;51.454;7.150;2022-07-25T09:53:25;7.25;;;6.45;;
2930;SDS011;1475;51.454;7.150;2022-07-25T09:55:53;6.65;;;6.00;;
2930;SDS011;1475;51.454;7.150;2022-07-25T09:58:21;7.05;;;6.38;;
2930;SDS011;1475;51.454;7.150;2022-07-25T10:00:48;7.10;;;5.90;;
2930;SDS011;1475;51.454;7.150;2022-07-25T10:03:24;7.28;;;6.30;;
2930;SDS011;1475;51.454;7.150;2022-07-25T10:06:19;7.60;;;6.60;;
2930;SDS011;1475;51.454;7.150;2022-07-25T10:08:50;7.20;;;6.50;;
2930;SDS011;1475;51.454;7.150;2022-07-25T10:11:19;7.20;;;6.50;;
2930;SDS011;1475;51.454;7.150;2022-07-25T10:13:50;7.85;;;7.00;;
2930;SDS011;1475;51.454;7.150;2022-07-25T10:16:18;8.27;;;6.97;;
2930;SDS011;1475;51.454;7.150;2022-07-25T10:18:48;7.40;;;6.43;;
2930;SDS011;1475;51.454;7.150;2022-07-25T10:21:17;7.35;;;6.40;;
2930;SDS011;1475;51.454;7.150;2022-07-25T10:23:57;7.60;;;6.60;;
2930;SDS011;1475;51.454;7.150;2022-07-25T10:26:31;7.93;;;6.82;;
2930;SDS011;1475;51.454;7.150;2022-07-25T10:29:00;9.00;;;7.53;;
2930;SDS011;1475;51.454;7.150;2022-07-25T10:31:39;8.63;;;6.60;;
2930;SDS011;1475;51.454;7.150;2022-07-25T10:34:10;8.18;;;7.05;;
2930;SDS011;1475;51.454;7.150;2022-07-25T10:36:50;9.50;;;6.83;;
2930;SDS011;1475;51.454;7.150;2022-07-25T10:39:43;8.95;;;7.80;;
2930;SDS011;1475;51.454;7.150;2022-07-25T10:42:19;9.02;;;7.35;;
2930;SDS011;1475;51.454;7.150;2022-07-25T10:44:56;8.40;;;7.60;;
2930;SDS011;1475;51.454;7.150;2022-07-25T10:47:25;8.43;;;7.32;;
2930;SDS011;1475;51.454;7.150;2022-07-25T10:49:55;9.10;;;7.07;;
2930;SDS011;1475;51.454;7.150;2022-07-25T10:52:26;7.72;;;6.93;;
2930;SDS011;1475;51.454;7.150;2022-07-25T10:54:55;9.40;;;7.30;;
2930;SDS011;1475;51.454;7.150;2022-07-25T10:57:41;8.85;;;7.60;;
2930;SDS011;1475;51.454;7.150;2022-07-25T11:03:12;11.15;;;7.97;;
2930;SDS011;1475;51.454;7.150;2022-07-25T11:05:44;9.60;;;6.87;;
2930;SDS011;1475;51.454;7.150;2022-07-25T11:08:31;7.50;;;6.70;;
2930;SDS011;1475;51.454;7.150;2022-07-25T11:11:02;10.20;;;6.73;;
2930;SDS011;1475;51.454;7.150;2022-07-25T11:13:35;11.10;;;6.80;;
2930;SDS011;1475;51.454;7.150;2022-07-25T11:16:04;7.07;;;6.07;;
2930;SDS011;1475;51.454;7.150;2022-07-25T11:18:34;8.80;;;5.30;;
2930;SDS011;1475;51.454;7.150;2022-07-25T11:21:03;7.23;;;5.70;;
2930;SDS011;1475;51.454;7.150;2022-07-25T11:23:32;6.70;;;6.10;;
2930;SDS011;1475;51.454;7.150;2022-07-25T11:26:05;6.50;;;5.55;;
2930;SDS011;1475;51.454;7.150;2022-07-25T11:29:00;6.20;;;5.60;;
2930;SDS011;1475;51.454;7.150;2022-07-25T11:31:30;10.32;;;6.10;;
2930;SDS011;1475;51.454;7.150;2022-07-25T11:34:22;5.65;;;5.00;;
2930;SDS011;1475;51.454;7.150;2022-07-25T11:36:59;7.57;;;5.72;;
2930;SDS011;1475;51.454;7.150;2022-07-25T11:39:29;6.30;;;5.32;;
2930;SDS011;1475;51.454;7.150;2022-07-25T11:42:03;6.80;;;5.00;;
2930;SDS011;1475;51.454;7.150;2022-07-25T11:44:34;6.15;;;5.50;;
2930;SDS011;1475;51.454;7.150;2022-07-25T11:47:03;8.35;;;5.88;;
2930;SDS011;1475;51.454;7.150;2022-07-25T11:49:45;7.47;;;5.25;;
2930;SDS011;1475;51.454;7.150;2022-07-25T11:52:19;6.30;;;4.82;;
2930;SDS011;1475;51.454;7.150;2022-07-25T11:54:52;6.88;;;5.60;;
2930;SDS011;1475;51.454;7.150;2022-07-25T11:57:23;5.13;;;4.30;;
2930;SDS011;1475;51.454;7.150;2022-07-25T12:02:54;7.82;;;5.50;;
2930;SDS011;1475;51.454;7.150;2022-07-25T12:05:38;10.60;;;5.60;;
2930;SDS011;1475;51.454;7.150;2022-07-25T12:08:35;6.88;;;4.70;;
2930;SDS011;1475;51.454;7.150;2022-07-25T12:11:18;6.50;;;4.80;;
2930;SDS011;1475;51.454;7.150;2022-07-25T12:13:49;6.13;;;4.50;;
2930;SDS011;1475;51.454;7.150;2022-07-25T12:16:31;5.55;;;4.38;;
2930;SDS011;1475;51.454;7.150;2022-07-25T12:18:58;5.30;;;4.50;;
2930;SDS011;1475;51.454;7.150;2022-07-25T12:21:25;5.15;;;4.55;;
2930;SDS011;1475;51.454;7.150;2022-07-25T12:23:53;6.25;;;4.10;;
2930;SDS011;1475;51.454;7.150;2022-07-25T12:26:19;6.60;;;4.70;;
2930;SDS011;1475;51.454;7.150;2022-07-25T12:28:47;9.65;;;4.78;;
2930;SDS011;1475;51.454;7.150;2022-07-25T12:31:14;5.95;;;4.72;;
2930;SDS011;1475;51.454;7.150;2022-07-25T12:33:42;6.70;;;5.60;;
2930;SDS011;1475;51.454;7.150;2022-07-25T12:36:11;7.10;;;5.20;;
2930;SDS011;1475;51.454;7.150;2022-07-25T12:38:38;7.55;;;5.40;;
2930;SDS011;1475;51.454;7.150;2022-07-25T12:41:06;5.10;;;4.53;;
2930;SDS011;1475;51.454;7.150;2022-07-25T12:43:33;6.78;;;4.80;;
2930;SDS011;1475;51.454;7.150;2022-07-25T12:45:59;5.10;;;4.57;;
2930;SDS011;1475;51.454;7.150;2022-07-25T12:48:27;6.30;;;4.30;;
2930;SDS011;1475;51.454;7.150;2022-07-25T12:50:57;5.60;;;4.40;;
2930;SDS011;1475;51.454;7.150;2022-07-25T12:53:24;5.38;;;4.65;;
2930;SDS011;1475;51.454;7.150;2022-07-25T12:56:00;5.22;;;4.22;;
2930;SDS011;1475;51.454;7.150;2022-07-25T12:58:27;8.27;;;4.60;;
2930;SDS011;1475;51.454;7.150;2022-07-25T13:00:54;6.47;;;4.95;;
2930;SDS011;1475;51.454;7.150;2022-07-25T13:03:30;7.90;;;4.40;;
2930;SDS011;1475;51.454;7.150;2022-07-25T13:06:00;6.10;;;4.50;;
2930;SDS011;1475;51.454;7.150;2022-07-25T13:08:27;6.30;;;4.40;;
2930;SDS011;1475;51.454;7.150;2022-07-25T13:10:54;6.37;;;4.47;;
2930;SDS011;1475;51.454;7.150;2022-07-25T13:13:20;4.97;;;4.00;;
2930;SDS011;1475;51.454;7.150;2022-07-25T13:15:47;6.00;;;4.70;;
2930;SDS011;1475;51.454;7.150;2022-07-25T13:18:14;9.57;;;4.32;;
2930;SDS011;1475;51.454;7.150;2022-07-25T13:20:41;7.38;;;4.40;;
2930;SDS011;1475;51.454;7.150;2022-07-25T13:23:11;5.97;;;4.40;;
2930;SDS011;1475;51.454;7.150;2022-07-25T13:25:38;6.35;;;4.30;;
2930;SDS011;1475;51.454;7.150;2022-07-25T13:28:05;9.15;;;4.68;;
2930;SDS011;1475;51.454;7.150;2022-07-25T13:30:32;6.32;;;4.40;;
2930;SDS011;1475;51.454;7.150;2022-07-25T13:33:00;5.90;;;4.43;;
2930;SDS011;1475;51.454;7.150;2022-07-25T13:35:34;7.13;;;4.30;;
2930;SDS011;1475;51.454;7.150;2022-07-25T13:38:02;8.35;;;4.75;;
2930;SDS011;1475;51.454;7.150;2022-07-25T13:40:41;6.20;;;4.55;;
2930;SDS011;1475;51.454;7.150;2022-07-25T13:43:09;6.40;;;4.70;;
2930;SDS011;1475;51.454;7.150;2022-07-25T13:45:39;6.97;;;4.60;;
2930;SDS011;1475;51.454;7.150;2022-07-25T13:48:07;6.97;;;4.70;;
2930;SDS011;1475;51.454;7.150;2022-07-25T13:50:35;6.75;;;4.55;;
2930;SDS011;1475;51.454;7.150;2022-07-25T13:53:04;6.50;;;4.50;;
2930;SDS011;1475;51.454;7.150;2022-07-25T13:58:10;5.10;;;3.33;;
2930;SDS011;1475;51.454;7.150;2022-07-25T14:00:37;5.95;;;3.60;;
2930;SDS011;1475;51.454;7.150;2022-07-25T14:03:13;6.68;;;3.50;;
2930;SDS011;1475;51.454;7.150;2022-07-25T14:05:42;5.85;;;3.10;;
2930;SDS011;1475;51.454;7.150;2022-07-25T14:08:10;5.97;;;3.25;;
2930;SDS011;1475;51.454;7.150;2022-07-25T14:10:37;4.00;;;3.00;;
2930;SDS011;1475;51.454;7.150;2022-07-25T14:13:04;4.17;;;3.23;;
2930;SDS011;1475;51.454;7.150;2022-07-25T14:15:33;5.47;;;3.17;;
2930;SDS011;1475;51.454;7.150;2022-07-25T14:18:10;5.88;;;3.10;;
2930;SDS011;1475;51.454;7.150;2022-07-25T14:20:39;5.77;;;3.33;;
2930;SDS011;1475;51.454;7.150;2022-07-25T14:23:08;5.25;;;3.30;;
2930;SDS011;1475;51.454;7.150;2022-07-25T14:25:35;5.55;;;3.10;;
2930;SDS011;1475;51.454;7.150;2022-07-25T14:28:07;4.47;;;3.20;;
2930;SDS011;1475;51.454;7.150;2022-07-25T14:34:14;4.60;;;3.10;;
2930;SDS011;1475;51.454;7.150;2022-07-25T14:37:05;5.00;;;3.10;;
2930;SDS011;1475;51.454;7.150;2022-07-25T14:39:33;4.80;;;3.22;;
2930;SDS011;1475;51.454;7.150;2022-07-25T14:42:03;5.65;;;3.00;;
2930;SDS011;1475;51.454;7.150;2022-07-25T14:44:35;4.60;;;2.67;;
2930;SDS011;1475;51.454;7.150;2022-07-25T14:47:02;4.32;;;2.70;;
2930;SDS011;1475;51.454;7.150;2022-07-25T14:49:34;10.88;;;3.00;;
2930;SDS011;1475;51.454;7.150;2022-07-25T14:52:01;6.13;;;3.08;;
2930;SDS011;1475;51.454;7.150;2022-07-25T14:54:28;4.80;;;2.50;;
2930;SDS011;1475;51.454;7.150;2022-07-25T14:57:02;4.88;;;2.60;;
2930;SDS011;1475;51.454;7.150;2022-07-25T14:59:49;4.30;;;2.65;;
2930;SDS011;1475;51.454;7.150;2022-07-25T15:02:20;4.18;;;2.40;;
2930;SDS011;1475;51.454;7.150;2022-07-25T15:08:25;6.80;;;3.60;;
2930;SDS011;1475;51.454;7.150;2022-07-25T15:10:58;5.60;;;3.37;;
2930;SDS011;1475;51.454;7.150;2022-07-25T15:13:33;8.98;;;3.15;;
2930;SDS011;1475;51.454;7.150;2022-07-25T15:16:03;8.48;;;3.70;;
2930;SDS011;1475;51.454;7.150;2022-07-25T15:18:30;8.90;;;4.60;;
2930;SDS011;1475;51.454;7.150;2022-07-25T15:20:58;7.37;;;5.20;;
2930;SDS011;1475;51.454;7.150;2022-07-25T15:26:24;6.50;;;3.97;;
2930;SDS011;1475;51.454;7.150;2022-07-25T15:28:52;5.38;;;3.70;;
2930;SDS011;1475;51.454;7.150;2022-07-25T15:31:24;8.27;;;3.65;;
2930;SDS011;1475;51.454;7.150;2022-07-25T15:33:51;8.07;;;3.83;;
2930;SDS011;1475;51.454;7.150;2022-07-25T15:36:36;7.27;;;4.07;;
2930;SDS011;1475;51.454;7.150;2022-07-25T15:39:15;4.68;;;3.85;;
2930;SDS011;1475;51.454;7.150;2022-07-25T15:41:43;7.77;;;4.73;;
2930;SDS011;1475;51.454;7.150;2022-07-25T15:44:14;6.95;;;4.00;;
2930;SDS011;1475;51.454;7.150;2022-07-25T15:46:46;6.10;;;3.50;;